createdAt,value
2018-03-01T00:00:55.144Z,100964.60
2018-03-01T00:03:22.624Z,100959.59
2018-03-01T00:05:50.155Z,100955.86
2018-03-01T00:08:17.613Z,100945.19
2018-03-01T00:10:45.192Z,100949.57
2018-03-01T00:13:12.674Z,100946.94
2018-03-01T00:15:40.155Z,100947.67
2018-03-01T00:18:07.678Z,100944.42
2018-03-01T00:20:35.128Z,100945.37
2018-03-01T00:23:02.618Z,100945.17
2018-03-01T00:25:30.101Z,100946.73
2018-03-01T00:27:57.565Z,100932.52
2018-03-01T00:30:25.084Z,100932.67
2018-03-01T00:32:52.584Z,100930.36
2018-03-01T00:35:20.042Z,100926.85
2018-03-01T00:37:47.502Z,100925.92
2018-03-01T00:40:15.080Z,100929.17
2018-03-01T00:42:42.525Z,100920.83
2018-03-01T00:45:10.076Z,100921.77
2018-03-01T00:47:37.568Z,100926.77
2018-03-01T00:50:05.020Z,100919.42
2018-03-01T00:52:32.502Z,100915.39
2018-03-01T00:55:00.333Z,100913.84
2018-03-01T00:57:27.804Z,100911.87
2018-03-01T00:59:55.268Z,100906.20
2018-03-01T01:02:22.745Z,100902.75
2018-03-01T01:04:55.213Z,100894.54
2018-03-01T01:07:22.658Z,100897.22
2018-03-01T01:09:50.156Z,100890.41
2018-03-01T01:12:17.641Z,100892.58
2018-03-01T01:14:45.104Z,100883.59
2018-03-01T01:17:12.553Z,100890.69
2018-03-01T01:19:40.094Z,100875.08
2018-03-01T01:22:07.534Z,100873.81
2018-03-01T01:24:34.997Z,100874.30
2018-03-01T01:27:02.465Z,100864.66
2018-03-01T01:29:29.979Z,100860.87
2018-03-01T01:31:57.435Z,100855.11
2018-03-01T01:34:24.902Z,100854.88
2018-03-01T01:36:52.352Z,100854.00
2018-03-01T01:39:19.891Z,100845.66
2018-03-01T01:41:47.398Z,100840.30
2018-03-01T01:44:14.917Z,100844.34
2018-03-01T01:46:42.370Z,100837.93
2018-03-01T01:49:09.820Z,100844.72
2018-03-01T01:51:37.316Z,100843.09
2018-03-01T01:54:04.845Z,100837.92
2018-03-01T01:56:32.303Z,100834.63
2018-03-01T01:58:59.747Z,100838.73
2018-03-01T02:01:27.269Z,100841.48
2018-03-01T02:03:54.726Z,100839.61
2018-03-01T02:06:22.218Z,100837.76
2018-03-01T02:08:49.702Z,100827.56
2018-03-01T02:11:17.173Z,100814.21
2018-03-01T02:13:45.253Z,100823.17
2018-03-01T02:16:13.654Z,100819.48
2018-03-01T02:18:41.188Z,100809.06
2018-03-01T02:21:08.704Z,100807.58
2018-03-01T02:23:36.201Z,100802.63
2018-03-01T02:26:04.791Z,100810.19
2018-03-01T02:28:32.329Z,100809.84
2018-03-01T02:31:01.916Z,100811.55
2018-03-01T02:33:30.908Z,100815.52
2018-03-01T02:36:03.372Z,100812.94
2018-03-01T02:38:31.624Z,100812.56
2018-03-01T02:40:59.118Z,100805.96
2018-03-01T02:43:26.614Z,100802.94
2018-03-01T02:45:55.580Z,100795.12
2018-03-01T02:48:23.115Z,100786.61
2018-03-01T02:50:50.652Z,100785.69
2018-03-01T02:53:18.180Z,100780.13
2018-03-01T02:55:45.711Z,100779.41
2018-03-01T02:58:13.216Z,100776.13
2018-03-01T03:00:40.727Z,100784.88
2018-03-01T03:03:08.215Z,100777.50
2018-03-01T03:05:35.729Z,100771.80
2018-03-01T03:08:03.224Z,100767.95
2018-03-01T03:10:31.521Z,100772.31
2018-03-01T03:12:59.017Z,100765.67
2018-03-01T03:15:26.523Z,100762.22
2018-03-01T03:17:54.065Z,100752.09
2018-03-01T03:20:21.558Z,100753.89
2018-03-01T03:22:49.886Z,100755.55
2018-03-01T03:25:17.392Z,100761.63
2018-03-01T03:27:46.591Z,100754.09
2018-03-01T03:30:14.092Z,100750.98
2018-03-01T03:32:42.608Z,100751.14
2018-03-01T03:35:10.153Z,100745.03
2018-03-01T03:37:37.672Z,100740.12
2018-03-01T03:40:05.185Z,100740.42
2018-03-01T03:42:32.687Z,100738.23
2018-03-01T03:45:00.186Z,100729.45
2018-03-01T03:47:27.705Z,100724.94
2018-03-01T03:49:55.192Z,100722.63
2018-03-01T03:52:23.925Z,100718.97
2018-03-01T03:54:51.461Z,100713.77
2018-03-01T03:57:18.973Z,100714.11
2018-03-01T03:59:46.459Z,100710.92
2018-03-01T04:02:15.185Z,100708.75
2018-03-01T04:04:43.505Z,100699.22
2018-03-01T04:07:10.993Z,100699.65
2018-03-01T04:09:38.523Z,100698.61
2018-03-01T04:12:06.014Z,100690.04
2018-03-01T04:14:33.525Z,100680.62
2018-03-01T04:17:01.086Z,100688.64
2018-03-01T04:19:28.589Z,100677.90
2018-03-01T04:21:56.101Z,100682.80
2018-03-01T04:24:23.609Z,100677.17
2018-03-01T04:26:51.098Z,100679.41
2018-03-01T04:29:18.588Z,100669.56
2018-03-01T04:31:46.153Z,100666.52
2018-03-01T04:34:14.360Z,100673.23
2018-03-01T04:36:41.901Z,100665.97
2018-03-01T04:39:09.385Z,100660.05
2018-03-01T04:41:36.833Z,100660.64
2018-03-01T04:44:04.305Z,100659.81
2018-03-01T04:46:31.764Z,100653.08
2018-03-01T04:48:59.239Z,100659.20
2018-03-01T04:51:26.695Z,100659.52
2018-03-01T04:53:54.154Z,100658.00
2018-03-01T04:56:21.634Z,100661.10
2018-03-01T04:58:49.105Z,100663.84
2018-03-01T05:01:16.551Z,100661.88
2018-03-01T05:03:43.991Z,100667.03
2018-03-01T05:06:11.437Z,100664.66
2018-03-01T05:08:38.936Z,100654.91
2018-03-01T05:11:06.366Z,100655.80
2018-03-01T05:13:33.840Z,100651.13
2018-03-01T05:16:01.347Z,100644.14
2018-03-01T05:18:28.803Z,100637.05
2018-03-01T05:20:56.285Z,100642.55
2018-03-01T05:23:23.750Z,100636.53
2018-03-01T05:25:51.190Z,100638.48
2018-03-01T05:28:18.679Z,100634.08
2018-03-01T05:30:46.243Z,100632.62
2018-03-01T05:33:13.704Z,100622.59
2018-03-01T05:35:42.518Z,100618.61
2018-03-01T05:38:10.033Z,100607.48
2018-03-01T05:40:37.555Z,100607.56
2018-03-01T05:43:05.039Z,100596.20
2018-03-01T05:45:32.542Z,100593.22
2018-03-01T05:48:00.075Z,100590.12
2018-03-01T05:50:27.624Z,100590.31
2018-03-01T05:52:55.885Z,100593.54
2018-03-01T05:55:23.445Z,100588.92
2018-03-01T05:57:50.983Z,100595.11
2018-03-01T06:00:19.539Z,100596.02
2018-03-01T06:02:48.091Z,100597.67
2018-03-01T06:05:17.401Z,100596.70
2018-03-01T06:07:44.912Z,100596.72
2018-03-01T06:10:12.383Z,100596.36
2018-03-01T06:12:39.915Z,100587.88
2018-03-01T06:15:07.405Z,100584.42
2018-03-01T06:17:34.851Z,100588.11
2018-03-01T06:20:02.335Z,100582.63
2018-03-01T06:22:29.785Z,100587.49
2018-03-01T06:24:57.257Z,100589.40
2018-03-01T06:27:24.719Z,100584.15
2018-03-01T06:29:52.169Z,100580.09
2018-03-01T06:32:19.648Z,100578.06
2018-03-01T06:34:47.131Z,100576.81
2018-03-01T06:37:14.602Z,100576.23
2018-03-01T06:39:42.080Z,100575.09
2018-03-01T06:42:09.551Z,100573.82
2018-03-01T06:44:37.005Z,100579.48
2018-03-01T06:47:04.453Z,100575.28
2018-03-01T06:49:31.901Z,100578.60
2018-03-01T06:51:59.442Z,100584.77
2018-03-01T06:54:26.919Z,100582.33
2018-03-01T06:56:54.377Z,100562.55
2018-03-01T06:59:21.850Z,100561.16
2018-03-01T07:01:49.298Z,100565.80
2018-03-01T07:04:16.760Z,100569.16
2018-03-01T07:06:44.226Z,100567.34
2018-03-01T07:09:11.688Z,100563.41
2018-03-01T07:11:39.151Z,100562.53
2018-03-01T07:14:11.687Z,100557.95
2018-03-01T07:16:39.211Z,100545.50
2018-03-01T07:19:06.677Z,100538.54
2018-03-01T07:21:34.155Z,100547.52
2018-03-01T07:24:02.210Z,100546.40
2018-03-01T07:26:29.707Z,100540.58
2018-03-01T07:28:57.195Z,100534.30
2018-03-01T07:31:24.677Z,100537.12
2018-03-01T07:33:52.169Z,100545.56
2018-03-01T07:36:19.669Z,100538.34
2018-03-01T07:38:47.208Z,100537.27
2018-03-01T07:41:14.668Z,100528.84
2018-03-01T07:43:42.183Z,100525.84
2018-03-01T07:46:09.682Z,100526.76
2018-03-01T07:48:37.154Z,100526.48
2018-03-01T07:51:04.628Z,100536.66
2018-03-01T07:53:32.110Z,100535.04
2018-03-01T07:55:59.573Z,100533.92
2018-03-01T07:58:27.055Z,100532.50
2018-03-01T08:00:54.567Z,100520.80
2018-03-01T08:03:22.091Z,100506.86
2018-03-01T08:05:49.612Z,100518.72
2018-03-01T08:08:17.047Z,100502.02
2018-03-01T08:10:44.521Z,100506.72
2018-03-01T08:13:11.976Z,100498.72
2018-03-01T08:15:39.432Z,100496.87
2018-03-01T08:18:07.685Z,100489.35
2018-03-01T08:20:35.153Z,100483.69
2018-03-01T08:23:02.667Z,100477.06
2018-03-01T08:25:35.101Z,100483.20
2018-03-01T08:28:02.565Z,100474.47
2018-03-01T08:30:30.064Z,100482.72
2018-03-01T08:32:57.556Z,100478.50
2018-03-01T08:35:25.015Z,100474.80
2018-03-01T08:37:52.487Z,100469.88
2018-03-01T08:40:20.021Z,100471.42
2018-03-01T08:42:47.508Z,100469.39
2018-03-01T08:45:14.987Z,100463.55
2018-03-01T08:47:42.493Z,100467.11
2018-03-01T08:50:09.952Z,100449.44
2018-03-01T08:52:42.326Z,100458.72
2018-03-01T08:55:15.453Z,100446.86
2018-03-01T08:57:42.995Z,100450.38
2018-03-01T09:00:10.476Z,100453.09
2018-03-01T09:02:38.873Z,100452.34
2018-03-01T09:05:12.284Z,100438.03
2018-03-01T09:07:39.806Z,100432.80
2018-03-01T09:10:07.349Z,100436.06
2018-03-01T09:12:36.010Z,100433.73
2018-03-01T09:15:03.672Z,100427.59
2018-03-01T09:17:31.644Z,100427.37
2018-03-01T09:19:59.321Z,100428.85
2018-03-01T09:22:27.077Z,100432.73
2018-03-01T09:24:54.654Z,100420.58
2018-03-01T09:27:22.216Z,100429.03
2018-03-01T09:29:49.858Z,100425.05
2018-03-01T09:32:17.555Z,100402.59
2018-03-01T09:34:46.212Z,100414.62
2018-03-01T09:37:13.850Z,100391.62
2018-03-01T09:39:41.523Z,100396.27
2018-03-01T09:42:09.105Z,100392.03
2018-03-01T09:44:36.693Z,100388.64
2018-03-01T09:47:04.516Z,100382.20
2018-03-01T09:49:32.179Z,100379.30
2018-03-01T09:51:59.682Z,100369.06
2018-03-01T09:54:27.148Z,100370.48
2018-03-01T09:56:54.661Z,100363.23
2018-03-01T09:59:22.238Z,100355.84
2018-03-01T10:01:49.724Z,100356.14
2018-03-01T10:04:17.213Z,100356.08
2018-03-01T10:06:44.770Z,100350.02
2018-03-01T10:09:12.243Z,100341.20
2018-03-01T10:11:39.719Z,100326.52
2018-03-01T10:14:07.394Z,100320.81
2018-03-01T10:16:34.931Z,100305.21
2018-03-01T10:19:02.520Z,100301.03
2018-03-01T10:21:30.019Z,100282.62
2018-03-01T10:23:57.605Z,100290.20
2018-03-01T10:26:25.077Z,100277.30
2018-03-01T10:28:52.524Z,100278.14
2018-03-01T10:31:19.997Z,100271.39
2018-03-01T10:33:47.485Z,100277.30
2018-03-01T10:36:14.985Z,100277.20
2018-03-01T10:38:42.541Z,100274.83
2018-03-01T10:41:10.023Z,100274.42
2018-03-01T10:43:37.493Z,100275.44
2018-03-01T10:46:05.761Z,100267.08
2018-03-01T10:48:33.209Z,100261.84
2018-03-01T10:51:00.718Z,100261.47
2018-03-01T10:53:28.192Z,100252.66
2018-03-01T10:55:55.699Z,100254.50
2018-03-01T10:58:23.176Z,100248.05
2018-03-01T11:00:56.151Z,100245.33
2018-03-01T11:03:23.653Z,100247.28
2018-03-01T11:05:51.120Z,100241.00
2018-03-01T11:08:18.565Z,100234.28
2018-03-01T11:10:46.110Z,100225.10
2018-03-01T11:13:13.569Z,100224.77
2018-03-01T11:15:41.472Z,100227.09
2018-03-01T11:18:08.959Z,100220.67
2018-03-01T11:20:36.525Z,100217.80
2018-03-01T11:23:04.094Z,100213.25
2018-03-01T11:25:31.628Z,100220.37
2018-03-01T11:27:59.114Z,100226.19
2018-03-01T11:30:26.662Z,100224.73
2018-03-01T11:32:55.006Z,100214.83
2018-03-01T11:35:22.563Z,100212.23
2018-03-01T11:37:50.008Z,100199.02
2018-03-01T11:40:17.550Z,100197.92
2018-03-01T11:42:45.008Z,100192.66
2018-03-01T11:45:12.484Z,100180.19
2018-03-01T11:47:40.001Z,100179.61
2018-03-01T11:50:07.540Z,100172.97
2018-03-01T11:52:34.988Z,100166.64
2018-03-01T11:55:02.450Z,100175.62
2018-03-01T11:57:29.906Z,100167.51
2018-03-01T11:59:57.344Z,100169.20
2018-03-01T12:02:25.708Z,100151.50
2018-03-01T12:04:55.072Z,100156.59
2018-03-01T12:07:22.567Z,100152.04
2018-03-01T12:09:50.061Z,100143.17
2018-03-01T12:12:17.569Z,100141.61
2018-03-01T12:14:45.142Z,100125.95
2018-03-01T12:17:12.657Z,100143.20
2018-03-01T12:19:40.221Z,100133.94
2018-03-01T12:22:07.690Z,100138.17
2018-03-01T12:24:35.151Z,100127.34
2018-03-01T12:27:02.665Z,100127.92
2018-03-01T12:29:30.163Z,100130.32
2018-03-01T12:31:58.413Z,100103.34
2018-03-01T12:34:26.007Z,100106.89
2018-03-01T12:36:53.495Z,100095.66
2018-03-01T12:39:20.995Z,100098.52
2018-03-01T12:41:48.477Z,100096.70
2018-03-01T12:44:15.995Z,100095.63
2018-03-01T12:46:43.495Z,100090.06
2018-03-01T12:49:10.999Z,100091.86
2018-03-01T12:51:38.509Z,100089.44
2018-03-01T12:54:06.161Z,100085.14
2018-03-01T12:56:33.623Z,100078.21
2018-03-01T12:59:01.150Z,100075.41
2018-03-01T13:01:28.639Z,100080.52
2018-03-01T13:03:56.145Z,100079.31
2018-03-01T13:06:23.635Z,100079.89
2018-03-01T13:08:51.131Z,100068.56
2018-03-01T13:11:18.591Z,100054.08
2018-03-01T13:13:46.067Z,100058.36
2018-03-01T13:16:13.581Z,100053.00
2018-03-01T13:18:41.115Z,100061.97
2018-03-01T13:21:08.617Z,100052.73
2018-03-01T13:23:36.174Z,100043.55
2018-03-01T13:26:03.659Z,100034.61
2018-03-01T13:28:31.151Z,100032.11
2018-03-01T13:30:58.655Z,100026.06
2018-03-01T13:33:31.766Z,100034.13
2018-03-01T13:36:01.203Z,100040.84
2018-03-01T13:38:29.179Z,100034.16
2018-03-01T13:40:56.723Z,100028.08
2018-03-01T13:43:26.023Z,100015.89
2018-03-01T13:45:53.467Z,100033.80
2018-03-01T13:48:21.033Z,100031.64
2018-03-01T13:50:48.493Z,100028.97
2018-03-01T13:53:16.215Z,100025.36
2018-03-01T13:55:43.671Z,100020.50
2018-03-01T13:58:11.149Z,100015.57
2018-03-01T14:00:38.705Z,100012.41
2018-03-01T14:03:06.227Z,100005.55
2018-03-01T14:05:33.709Z,100013.63
2018-03-01T14:08:01.247Z,100005.42
2018-03-01T14:10:29.607Z,100005.17
2018-03-01T14:13:01.659Z,99992.89
2018-03-01T14:15:30.181Z,99998.23
2018-03-01T14:18:00.665Z,99992.25
2018-03-01T14:20:31.638Z,100002.92
2018-03-01T14:23:02.339Z,99997.23
2018-03-01T14:25:33.177Z,99988.69
2018-03-01T14:28:06.245Z,99983.14
2018-03-01T14:30:35.378Z,99987.41
2018-03-01T14:33:02.938Z,99984.57
2018-03-01T14:35:30.443Z,99973.94
2018-03-01T14:37:57.973Z,99963.45
2018-03-01T14:40:25.523Z,99965.20
2018-03-01T14:42:53.035Z,99965.42
2018-03-01T14:45:20.620Z,99975.30
2018-03-01T14:47:49.013Z,99968.56
2018-03-01T14:50:17.356Z,99967.03
2018-03-01T14:52:44.866Z,99945.69
2018-03-01T14:55:13.362Z,99950.32
2018-03-01T14:57:41.101Z,99943.25
2018-03-01T15:00:08.619Z,99942.02
2018-03-01T15:02:36.127Z,99943.08
2018-03-01T15:05:03.646Z,99937.08
2018-03-01T15:07:31.125Z,99939.31
2018-03-01T15:09:58.669Z,99936.55
2018-03-01T15:12:26.145Z,99939.28
2018-03-01T15:14:53.608Z,99921.06
2018-03-01T15:17:21.132Z,99922.81
2018-03-01T15:19:48.683Z,99920.34
2018-03-01T15:22:16.191Z,99919.82
2018-03-01T15:24:43.678Z,99919.83
2018-03-01T15:27:11.251Z,99916.31
2018-03-01T15:29:38.770Z,99916.91
2018-03-01T15:32:06.546Z,99920.56
2018-03-01T15:34:34.027Z,99912.17
2018-03-01T15:37:02.348Z,99921.18
2018-03-01T15:39:29.896Z,99921.44
2018-03-01T15:41:57.770Z,99913.94
2018-03-01T15:44:25.330Z,99908.23
2018-03-01T15:46:52.803Z,99914.27
2018-03-01T15:49:23.269Z,99909.91
2018-03-01T15:51:50.782Z,99913.58
2018-03-01T15:54:18.480Z,99913.12
2018-03-01T15:56:45.908Z,99913.58
2018-03-01T15:59:13.575Z,99910.89
2018-03-01T16:01:41.109Z,99912.55
2018-03-01T16:04:08.594Z,99909.56
2018-03-01T16:06:36.049Z,99913.20
2018-03-01T16:09:03.553Z,99909.20
2018-03-01T16:11:31.025Z,99910.75
2018-03-01T16:13:58.520Z,99911.91
2018-03-01T16:16:26.039Z,99907.31
2018-03-01T16:18:53.519Z,99914.84
2018-03-01T16:21:20.983Z,99903.56
2018-03-01T16:23:48.440Z,99894.23
2018-03-01T16:26:15.887Z,99906.00
2018-03-01T16:28:43.538Z,99904.84
2018-03-01T16:31:11.015Z,99912.84
2018-03-01T16:33:38.551Z,99903.86
2018-03-01T16:36:06.053Z,99915.61
2018-03-01T16:38:33.542Z,99913.52
2018-03-01T16:41:01.046Z,99923.20
2018-03-01T16:43:28.525Z,99917.03
2018-03-01T16:45:55.993Z,99914.55
2018-03-01T16:48:23.447Z,99919.90
2018-03-01T16:50:50.929Z,99920.81
2018-03-01T16:53:19.309Z,99917.20
2018-03-01T16:55:46.807Z,99927.61
2018-03-01T16:58:14.373Z,99920.55
2018-03-01T17:00:41.858Z,99917.66
2018-03-01T17:03:09.346Z,99925.96
2018-03-01T17:05:36.900Z,99919.11
2018-03-01T17:08:04.395Z,99917.98
2018-03-01T17:10:31.925Z,99923.20
2018-03-01T17:12:59.384Z,99924.31
2018-03-01T17:15:26.912Z,99922.53
2018-03-01T17:17:54.378Z,99929.62
2018-03-01T17:20:21.911Z,99920.75
2018-03-01T17:22:49.367Z,99922.16
2018-03-01T17:25:16.876Z,99916.89
2018-03-01T17:27:44.636Z,99912.97
2018-03-01T17:30:13.910Z,99922.89
2018-03-01T17:32:44.292Z,99923.99
2018-03-01T17:35:12.678Z,99916.68
2018-03-01T17:37:40.174Z,99915.00
2018-03-01T17:40:07.708Z,99923.09
2018-03-01T17:42:35.226Z,99926.45
2018-03-01T17:45:02.723Z,99925.81
2018-03-01T17:47:31.850Z,99925.28
2018-03-01T17:49:59.380Z,99921.77
2018-03-01T17:52:26.861Z,99923.20
2018-03-01T17:54:54.322Z,99928.77
2018-03-01T17:57:21.869Z,99923.28
2018-03-01T17:59:49.344Z,99919.80
2018-03-01T18:02:16.844Z,99909.52
2018-03-01T18:04:44.440Z,99916.80
2018-03-01T18:07:11.967Z,99917.42
2018-03-01T18:09:39.466Z,99907.63
2018-03-01T18:12:07.042Z,99901.73
2018-03-01T18:14:34.569Z,99912.22
2018-03-01T18:17:02.063Z,99904.55
2018-03-01T18:19:29.586Z,99901.74
2018-03-01T18:21:57.131Z,99905.23
2018-03-01T18:24:25.762Z,99912.75
2018-03-01T18:26:53.362Z,99910.23
2018-03-01T18:29:20.908Z,99911.42
2018-03-01T18:31:48.385Z,99907.64
2018-03-01T18:34:15.882Z,99907.64
2018-03-01T18:36:43.384Z,99910.23
2018-03-01T18:39:10.918Z,99912.63
2018-03-01T18:41:38.394Z,99905.76
2018-03-01T18:44:05.861Z,99900.05
2018-03-01T18:46:34.273Z,99907.13
2018-03-01T18:49:01.834Z,99904.64
2018-03-01T18:51:29.322Z,99905.33
2018-03-01T18:53:56.788Z,99902.05
2018-03-01T18:56:24.405Z,99899.55
2018-03-01T18:58:51.907Z,99908.43
2018-03-01T19:01:19.368Z,99912.33
2018-03-01T19:03:46.862Z,99904.64
2018-03-01T19:06:14.409Z,99912.53
2018-03-01T19:08:41.878Z,99908.02
2018-03-01T19:11:09.354Z,99898.25
2018-03-01T19:13:36.871Z,99900.13
2018-03-01T19:16:04.369Z,99898.62
2018-03-01T19:18:31.856Z,99890.06
2018-03-01T19:20:59.399Z,99887.26
2018-03-01T19:23:26.889Z,99886.06
2018-03-01T19:25:54.376Z,99888.44
2018-03-01T19:28:21.859Z,99887.63
2018-03-01T19:30:49.391Z,99884.55
2018-03-01T19:33:16.938Z,99881.96
2018-03-01T19:35:44.440Z,99879.95
2018-03-01T19:38:11.960Z,99878.03
2018-03-01T19:40:39.424Z,99868.84
2018-03-01T19:43:06.962Z,99868.38
2018-03-01T19:45:35.271Z,99868.58
2018-03-01T19:48:03.329Z,99865.58
2018-03-01T19:50:30.815Z,99858.20
2018-03-01T19:52:58.297Z,99855.51
2018-03-01T19:55:25.806Z,99850.11
2018-03-01T19:57:53.326Z,99845.91
2018-03-01T20:00:20.829Z,99845.80
2018-03-01T20:02:48.306Z,99845.19
2018-03-01T20:05:15.803Z,99845.48
2018-03-01T20:07:43.446Z,99853.06
2018-03-01T20:10:10.908Z,99844.60
2018-03-01T20:12:38.408Z,99833.21
2018-03-01T20:15:05.974Z,99830.66
2018-03-01T20:17:33.502Z,99834.13
2018-03-01T20:20:01.022Z,99828.54
2018-03-01T20:22:29.042Z,99836.42
2018-03-01T20:24:56.573Z,99831.14
2018-03-01T20:27:24.025Z,99836.22
2018-03-01T20:29:51.553Z,99835.73
2018-03-01T20:32:19.007Z,99837.52
2018-03-01T20:34:46.477Z,99840.31
2018-03-01T20:37:13.966Z,99836.93
2018-03-01T20:39:41.478Z,99839.32
2018-03-01T20:42:08.992Z,99838.23
2018-03-01T20:44:36.445Z,99827.14
2018-03-01T20:47:04.283Z,99826.73
2018-03-01T20:49:31.753Z,99818.73
2018-03-01T20:51:59.538Z,99818.36
2018-03-01T20:54:32.117Z,99825.83
2018-03-01T20:56:59.594Z,99819.35
2018-03-01T20:59:27.087Z,99821.94
2018-03-01T21:01:54.633Z,99804.97
2018-03-01T21:04:22.305Z,99796.17
2018-03-01T21:06:49.869Z,99794.45
2018-03-01T21:09:17.355Z,99793.36
2018-03-01T21:11:44.878Z,99797.76
2018-03-01T21:14:12.395Z,99792.88
2018-03-01T21:16:39.968Z,99791.54
2018-03-01T21:19:07.423Z,99791.06
2018-03-01T21:21:34.927Z,99782.19
2018-03-01T21:24:02.555Z,99782.03
2018-03-01T21:26:30.612Z,99782.12
2018-03-01T21:28:58.890Z,99776.62
2018-03-01T21:31:26.504Z,99772.64
2018-03-01T21:33:54.119Z,99777.44
2018-03-01T21:36:21.753Z,99774.42
2018-03-01T21:38:49.279Z,99771.98
2018-03-01T21:41:16.792Z,99763.53
2018-03-01T21:43:44.269Z,99763.03
2018-03-01T21:46:14.799Z,99759.97
2018-03-01T21:48:42.357Z,99760.31
2018-03-01T21:51:09.837Z,99747.16
2018-03-01T21:53:37.468Z,99739.79
2018-03-01T21:56:05.018Z,99736.96
2018-03-01T21:58:32.495Z,99726.20
2018-03-01T22:00:59.974Z,99732.23
2018-03-01T22:03:28.573Z,99720.27
2018-03-01T22:05:56.092Z,99731.86
2018-03-01T22:08:23.736Z,99726.37
2018-03-01T22:10:51.229Z,99721.45
2018-03-01T22:13:18.765Z,99719.27
2018-03-01T22:15:46.341Z,99713.80
2018-03-01T22:18:13.771Z,99712.03
2018-03-01T22:20:41.351Z,99711.95
2018-03-01T22:23:08.841Z,99717.73
2018-03-01T22:25:36.303Z,99714.11
2018-03-01T22:28:03.779Z,99707.64
2018-03-01T22:30:31.405Z,99704.25
2018-03-01T22:32:58.888Z,99706.72
2018-03-01T22:35:26.323Z,99712.00
2018-03-01T22:37:53.817Z,99704.13
2018-03-01T22:40:21.254Z,99704.69
2018-03-01T22:42:48.712Z,99699.91
2018-03-01T22:45:16.165Z,99701.76
2018-03-01T22:47:43.876Z,99696.55
2018-03-01T22:50:11.327Z,99690.52
2018-03-01T22:52:38.811Z,99696.61
2018-03-01T22:55:11.377Z,99686.81
2018-03-01T22:57:38.879Z,99688.95
2018-03-01T23:00:06.367Z,99682.45
2018-03-01T23:02:33.835Z,99683.75
2018-03-01T23:05:01.311Z,99684.42
2018-03-01T23:07:28.753Z,99684.70
2018-03-01T23:09:56.249Z,99675.52
2018-03-01T23:12:23.719Z,99674.30
2018-03-01T23:14:51.200Z,99669.91
2018-03-01T23:17:18.673Z,99670.30
2018-03-01T23:19:46.119Z,99669.97
2018-03-01T23:22:13.633Z,99676.14
2018-03-01T23:24:41.165Z,99668.06
2018-03-01T23:27:08.645Z,99661.22
2018-03-01T23:29:36.123Z,99662.50
2018-03-01T23:32:03.607Z,99660.14
2018-03-01T23:34:31.115Z,99665.09
2018-03-01T23:36:59.175Z,99652.92
2018-03-01T23:39:26.673Z,99646.12
2018-03-01T23:41:54.131Z,99645.73
2018-03-01T23:44:21.601Z,99640.95
2018-03-01T23:46:49.123Z,99638.73
2018-03-01T23:49:16.575Z,99630.73
2018-03-01T23:51:44.035Z,99629.23
2018-03-01T23:54:11.506Z,99626.72
2018-03-01T23:56:39.027Z,99624.58
2018-03-01T23:59:06.548Z,99618.87
